createdAt,value
2019-04-01T00:00:59.766Z,99.90
2019-04-01T00:03:28.210Z,99.90
2019-04-01T00:05:56.652Z,99.90
2019-04-01T00:08:25.071Z,99.90
2019-04-01T00:10:53.582Z,99.90
2019-04-01T00:13:22.013Z,99.90
2019-04-01T00:15:50.445Z,99.90
2019-04-01T00:18:18.873Z,99.90
2019-04-01T00:20:47.298Z,99.90
2019-04-01T00:23:15.738Z,99.90
2019-04-01T00:25:44.171Z,99.90
2019-04-01T00:28:12.611Z,99.90
2019-04-01T00:30:41.025Z,99.90
2019-04-01T00:33:11.081Z,99.90
2019-04-01T00:35:39.468Z,99.90
2019-04-01T00:38:07.919Z,99.90
2019-04-01T00:40:36.353Z,99.90
2019-04-01T00:43:09.307Z,99.90
2019-04-01T00:45:39.376Z,99.90
2019-04-01T00:48:07.862Z,99.90
2019-04-01T00:50:36.314Z,99.90
2019-04-01T00:53:04.768Z,99.90
2019-04-01T00:55:33.193Z,99.90
2019-04-01T00:58:01.629Z,99.90
2019-04-01T01:00:30.068Z,99.90
2019-04-01T01:02:58.494Z,99.90
2019-04-01T01:05:26.938Z,99.90
2019-04-01T01:07:55.368Z,99.90
2019-04-01T01:10:25.466Z,99.90
2019-04-01T01:12:53.892Z,99.90
2019-04-01T01:15:22.342Z,99.90
2019-04-01T01:17:59.620Z,99.90
2019-04-01T01:20:28.056Z,99.90
2019-04-01T01:22:56.496Z,99.90
2019-04-01T01:25:24.919Z,99.90
2019-04-01T01:27:53.349Z,99.90
2019-04-01T01:30:21.804Z,99.90
2019-04-01T01:32:50.253Z,99.90
2019-04-01T01:35:18.678Z,99.90
2019-04-01T01:37:47.097Z,99.90
2019-04-01T01:40:15.524Z,99.90
2019-04-01T01:42:43.996Z,99.90
2019-04-01T01:45:12.505Z,99.90
2019-04-01T01:47:40.943Z,99.90
2019-04-01T01:50:09.545Z,99.90
2019-04-01T01:52:37.975Z,99.90
2019-04-01T01:55:06.525Z,99.90
2019-04-01T01:57:34.969Z,99.90
2019-04-01T02:00:03.471Z,99.90
2019-04-01T02:02:31.890Z,99.90
2019-04-01T02:05:00.357Z,99.90
2019-04-01T02:07:28.823Z,99.90
2019-04-01T02:09:57.257Z,99.90
2019-04-01T02:12:25.697Z,99.90
2019-04-01T02:14:54.134Z,99.90
2019-04-01T02:17:22.649Z,99.90
2019-04-01T02:19:51.110Z,99.90
2019-04-01T02:22:19.525Z,99.90
2019-04-01T02:24:48.710Z,99.90
2019-04-01T02:27:17.129Z,99.90
2019-04-01T02:29:45.568Z,99.90
2019-04-01T02:32:13.986Z,99.90
2019-04-01T02:34:42.434Z,99.90
2019-04-01T02:37:10.843Z,99.90
2019-04-01T02:39:39.284Z,99.90
2019-04-01T02:42:07.789Z,99.90
2019-04-01T02:44:36.229Z,99.90
2019-04-01T02:47:04.747Z,99.90
2019-04-01T02:49:33.163Z,99.90
2019-04-01T02:52:01.585Z,99.90
2019-04-01T02:54:30.035Z,99.90
2019-04-01T02:56:58.451Z,99.90
2019-04-01T02:59:26.891Z,99.90
2019-04-01T03:01:55.318Z,99.90
2019-04-01T03:04:23.897Z,99.90
2019-04-01T03:06:52.321Z,99.90
2019-04-01T03:09:20.784Z,99.90
2019-04-01T03:11:49.260Z,99.90
2019-04-01T03:14:17.675Z,99.90
2019-04-01T03:16:46.124Z,99.90
2019-04-01T03:19:14.577Z,99.90
2019-04-01T03:21:43.020Z,99.90
2019-04-01T03:24:11.465Z,99.90
2019-04-01T03:26:40.151Z,99.90
2019-04-01T03:29:08.555Z,99.90
2019-04-01T03:31:36.990Z,99.90
2019-04-01T03:34:05.413Z,99.90
2019-04-01T03:36:33.866Z,99.90
2019-04-01T03:39:02.294Z,99.90
2019-04-01T03:41:30.787Z,99.90
2019-04-01T03:43:59.201Z,99.90
2019-04-01T03:46:27.684Z,99.90
2019-04-01T03:48:56.114Z,99.90
2019-04-01T03:51:24.559Z,99.90
2019-04-01T03:53:53.215Z,99.90
2019-04-01T03:56:21.664Z,99.90
2019-04-01T03:58:50.113Z,99.90
2019-04-01T04:01:18.537Z,99.90
2019-04-01T04:03:46.968Z,99.90
2019-04-01T04:06:17.067Z,99.90
2019-04-01T04:08:45.483Z,99.90
2019-04-01T04:11:13.910Z,99.90
2019-04-01T04:13:42.336Z,99.90
2019-04-01T04:16:10.800Z,99.90
2019-04-01T04:18:39.223Z,99.90
2019-04-01T04:21:07.711Z,99.90
2019-04-01T04:23:36.143Z,99.90
2019-04-01T04:26:04.590Z,99.90
2019-04-01T04:28:33.021Z,99.90
2019-04-01T04:31:01.459Z,99.90
2019-04-01T04:33:29.907Z,99.90
2019-04-01T04:35:58.335Z,99.90
2019-04-01T04:38:26.817Z,99.90
2019-04-01T04:40:55.246Z,99.90
2019-04-01T04:43:23.678Z,99.90
2019-04-01T04:45:53.833Z,99.90
2019-04-01T04:48:22.491Z,99.90
2019-04-01T04:50:55.979Z,99.90
2019-04-01T04:53:26.818Z,99.90
2019-04-01T04:55:55.088Z,99.90
2019-04-01T04:58:25.643Z,99.90
2019-04-01T05:00:55.312Z,99.90
2019-04-01T05:03:23.779Z,99.90
2019-04-01T05:05:52.376Z,99.90
2019-04-01T05:08:20.803Z,99.90
2019-04-01T05:10:49.212Z,99.90
2019-04-01T05:13:17.709Z,99.90
2019-04-01T05:15:46.132Z,99.90
2019-04-01T05:18:14.564Z,99.90
2019-04-01T05:20:43.822Z,99.90
2019-04-01T05:23:13.200Z,99.90
2019-04-01T05:25:43.358Z,99.90
2019-04-01T05:28:13.889Z,99.90
2019-04-01T05:30:44.862Z,99.90
2019-04-01T05:33:16.724Z,99.90
2019-04-01T05:35:49.966Z,99.90
2019-04-01T05:38:21.160Z,99.90
2019-04-01T05:40:51.226Z,99.90
2019-04-01T05:43:19.772Z,99.90
2019-04-01T05:45:50.357Z,99.90
2019-04-01T05:48:20.016Z,99.90
2019-04-01T05:50:48.486Z,99.90
2019-04-01T05:53:16.914Z,99.90
2019-04-01T05:55:45.581Z,99.90
2019-04-01T05:58:14.042Z,99.90
2019-04-01T06:00:47.297Z,99.90
2019-04-01T06:03:15.734Z,99.90
2019-04-01T06:05:44.170Z,99.90
2019-04-01T06:08:12.604Z,99.90
2019-04-01T06:10:41.046Z,99.90
2019-04-01T06:13:09.651Z,99.90
2019-04-01T06:15:38.748Z,99.90
2019-04-01T06:18:07.200Z,99.90
2019-04-01T06:20:35.605Z,99.90
2019-04-01T06:23:04.289Z,99.90
2019-04-01T06:25:32.705Z,99.90
2019-04-01T06:28:01.204Z,99.90
2019-04-01T06:30:29.614Z,99.90
2019-04-01T06:32:58.219Z,99.90
2019-04-01T06:35:26.636Z,99.90
2019-04-01T06:37:55.207Z,99.90
2019-04-01T06:40:23.655Z,99.90
2019-04-01T06:42:52.582Z,99.90
2019-04-01T06:45:21.003Z,99.90
2019-04-01T06:47:49.512Z,99.90
2019-04-01T06:50:17.996Z,99.90
2019-04-01T06:52:46.436Z,99.90
2019-04-01T06:55:14.884Z,99.90
2019-04-01T06:57:43.305Z,99.90
2019-04-01T07:00:11.965Z,99.90
2019-04-01T07:02:40.491Z,99.90
2019-04-01T07:05:12.372Z,99.90
2019-04-01T07:07:39.424Z,99.90
2019-04-01T07:10:07.972Z,99.90
2019-04-01T07:12:36.558Z,99.90
2019-04-01T07:15:06.941Z,99.90
2019-04-01T07:17:35.372Z,99.90
2019-04-01T07:20:08.367Z,99.90
2019-04-01T07:22:35.220Z,99.90
2019-04-01T07:25:03.894Z,99.90
2019-04-01T07:27:32.585Z,99.90
2019-04-01T07:30:01.009Z,99.90
2019-04-01T07:32:29.513Z,99.90
2019-04-01T07:34:57.954Z,99.90
2019-04-01T07:37:26.391Z,99.90
2019-04-01T07:39:54.916Z,99.90
2019-04-01T07:42:23.412Z,99.90
2019-04-01T07:44:51.844Z,99.90
2019-04-01T07:47:20.269Z,99.90
2019-04-01T07:49:48.810Z,99.90
2019-04-01T07:52:17.403Z,99.90
2019-04-01T07:54:45.843Z,99.90
2019-04-01T07:57:14.263Z,99.90
2019-04-01T07:59:42.908Z,99.90
2019-04-01T08:02:11.505Z,99.90
2019-04-01T08:04:39.939Z,99.90
2019-04-01T08:07:08.361Z,99.90
2019-04-01T08:09:36.825Z,99.90
2019-04-01T08:12:05.340Z,99.90
2019-04-01T08:14:33.811Z,99.90
2019-04-01T08:17:02.230Z,99.90
2019-04-01T08:19:30.666Z,99.90
2019-04-01T08:21:59.166Z,99.90
2019-04-01T08:24:27.608Z,99.90
2019-04-01T08:26:56.032Z,99.90
2019-04-01T08:29:30.291Z,99.90
2019-04-01T08:31:54.691Z,99.90
2019-04-01T08:34:23.117Z,99.90
2019-04-01T08:36:51.561Z,99.90
2019-04-01T08:39:20.012Z,99.90
2019-04-01T08:41:48.417Z,99.90
2019-04-01T08:44:17.244Z,99.90
2019-04-01T08:46:45.682Z,99.90
2019-04-01T08:49:14.274Z,99.90
2019-04-01T08:51:42.759Z,99.90
2019-04-01T08:54:11.191Z,99.90
2019-04-01T08:56:39.613Z,99.90
2019-04-01T08:59:08.154Z,99.90
2019-04-01T09:01:36.570Z,99.90
2019-04-01T09:04:05.077Z,99.90
2019-04-01T09:06:33.513Z,99.90
2019-04-01T09:09:04.531Z,99.90
2019-04-01T09:11:33.421Z,99.90
2019-04-01T09:14:02.514Z,99.90
2019-04-01T09:16:31.582Z,99.90
2019-04-01T09:19:00.002Z,99.90
2019-04-01T09:21:28.456Z,99.90
2019-04-01T09:23:56.955Z,99.90
2019-04-01T09:26:25.375Z,99.90
2019-04-01T09:28:53.798Z,99.90
2019-04-01T09:31:22.234Z,99.90
2019-04-01T09:33:50.666Z,99.90
2019-04-01T09:36:19.104Z,99.90
2019-04-01T09:38:47.529Z,99.90
2019-04-01T09:41:16.017Z,99.90
2019-04-01T09:43:44.585Z,99.90
2019-04-01T09:46:13.029Z,99.90
2019-04-01T09:48:41.454Z,99.90
2019-04-01T09:51:09.873Z,99.90
2019-04-01T09:53:38.301Z,99.90
2019-04-01T09:56:06.753Z,99.90
2019-04-01T09:58:35.194Z,99.90
2019-04-01T10:01:03.688Z,99.90
2019-04-01T10:03:32.097Z,99.90
2019-04-01T10:06:00.539Z,99.90
2019-04-01T10:08:41.491Z,99.90
2019-04-01T10:10:59.358Z,99.90
2019-04-01T10:13:27.798Z,99.90
2019-04-01T10:15:56.234Z,99.90
2019-04-01T10:18:24.664Z,99.90
2019-04-01T10:20:53.110Z,99.90
2019-04-01T10:23:21.519Z,99.90
2019-04-01T10:25:51.589Z,99.90
2019-04-01T10:28:20.253Z,99.90
2019-04-01T10:30:48.706Z,99.90
2019-04-01T10:33:18.090Z,99.90
2019-04-01T10:35:46.536Z,99.90
2019-04-01T10:38:14.963Z,99.90
2019-04-01T10:40:43.472Z,99.90
2019-04-01T10:43:12.628Z,99.90
2019-04-01T10:45:41.051Z,99.90
2019-04-01T10:48:09.520Z,99.90
2019-04-01T10:50:39.589Z,99.90
2019-04-01T10:53:08.085Z,99.90
2019-04-01T10:55:36.543Z,99.90
2019-04-01T10:58:04.975Z,99.90
2019-04-01T11:00:33.533Z,99.90
2019-04-01T11:03:05.822Z,99.90
2019-04-01T11:05:32.203Z,99.90
2019-04-01T11:08:00.648Z,99.90
2019-04-01T11:10:29.104Z,99.90
2019-04-01T11:12:57.549Z,99.90
2019-04-01T11:15:26.005Z,99.90
2019-04-01T11:17:54.439Z,99.90
2019-04-01T11:20:22.852Z,99.90
2019-04-01T11:22:51.302Z,99.90
2019-04-01T11:25:19.718Z,99.90
2019-04-01T11:27:48.156Z,99.90
2019-04-01T11:30:16.815Z,99.90
2019-04-01T11:32:45.325Z,99.90
2019-04-01T11:35:13.868Z,99.90
2019-04-01T11:37:42.363Z,99.90
2019-04-01T11:40:12.202Z,99.90
2019-04-01T11:42:41.111Z,99.90
2019-04-01T11:45:09.908Z,99.90
2019-04-01T11:47:38.448Z,99.90
2019-04-01T11:50:09.006Z,99.90
2019-04-01T11:52:38.178Z,99.90
2019-04-01T11:55:08.925Z,99.90
2019-04-01T11:57:37.953Z,99.90
2019-04-01T12:00:12.758Z,99.90
2019-04-01T12:02:40.986Z,99.90
2019-04-01T12:05:09.607Z,99.90
2019-04-01T12:07:38.045Z,99.90
2019-04-01T12:10:07.643Z,99.90
2019-04-01T12:12:36.257Z,99.90
2019-04-01T12:15:06.021Z,99.90
2019-04-01T12:17:34.479Z,99.90
2019-04-01T12:20:02.959Z,99.90
2019-04-01T12:22:31.404Z,99.90
2019-04-01T12:24:59.834Z,99.90
2019-04-01T12:27:28.258Z,99.90
2019-04-01T12:29:56.745Z,99.90
2019-04-01T12:32:25.171Z,99.90
2019-04-01T12:34:53.602Z,99.90
2019-04-01T12:37:23.421Z,99.90
2019-04-01T12:39:51.845Z,99.90
2019-04-01T12:42:20.337Z,99.90
2019-04-01T12:44:48.842Z,99.90
2019-04-01T12:47:17.353Z,99.90
2019-04-01T12:49:45.793Z,99.90
2019-04-01T12:52:14.213Z,99.90
2019-04-01T12:54:42.733Z,99.90
2019-04-01T12:57:11.201Z,99.90
2019-04-01T12:59:39.653Z,99.90
2019-04-01T13:02:08.146Z,99.90
2019-04-01T13:04:36.586Z,99.90
2019-04-01T13:07:05.344Z,99.90
2019-04-01T13:09:33.912Z,99.90
2019-04-01T13:12:02.469Z,99.90
2019-04-01T13:14:30.900Z,99.90
2019-04-01T13:16:59.318Z,99.90
2019-04-01T13:19:27.762Z,99.90
2019-04-01T13:21:56.273Z,99.90
2019-04-01T13:24:24.713Z,99.90
2019-04-01T13:26:53.128Z,99.60
2019-04-01T13:29:30.106Z,99.70
2019-04-01T13:32:00.538Z,99.90
2019-04-01T13:34:28.767Z,99.90
2019-04-01T13:36:57.202Z,99.40
2019-04-01T13:39:26.855Z,99.40
2019-04-01T13:41:56.383Z,99.90
2019-04-01T13:44:36.060Z,98.90
2019-04-01T13:46:56.014Z,98.80
2019-04-01T13:49:24.634Z,98.60
2019-04-01T13:51:53.103Z,98.80
2019-04-01T13:54:21.566Z,98.40
2019-04-01T13:56:50.015Z,98.30
2019-04-01T13:59:18.461Z,98.10
2019-04-01T14:01:46.896Z,97.60
2019-04-01T14:04:17.139Z,98.30
2019-04-01T14:06:45.558Z,97.50
2019-04-01T14:09:13.991Z,97.00
2019-04-01T14:11:42.410Z,96.90
2019-04-01T14:14:10.874Z,97.20
2019-04-01T14:16:41.443Z,97.20
2019-04-01T14:19:09.487Z,97.50
2019-04-01T14:21:37.912Z,96.20
2019-04-01T14:24:06.376Z,95.80
2019-04-01T14:26:34.798Z,95.50
2019-04-01T14:29:30.838Z,95.20
2019-04-01T14:31:59.273Z,95.70
2019-04-01T14:34:27.723Z,95.90
2019-04-01T14:36:56.143Z,96.10
2019-04-01T14:39:24.586Z,95.60
2019-04-01T14:41:53.009Z,95.20
2019-04-01T14:44:24.338Z,95.30
2019-04-01T14:47:56.494Z,95.60
2019-04-01T14:50:13.677Z,95.90
2019-04-01T14:52:42.384Z,95.20
2019-04-01T14:55:10.949Z,94.80
2019-04-01T14:57:39.386Z,95.30
2019-04-01T15:00:10.904Z,96.10
2019-04-01T15:02:39.342Z,95.20
2019-04-01T15:05:08.157Z,94.80
2019-04-01T15:07:36.585Z,95.50
2019-04-01T15:10:06.964Z,95.00
2019-04-01T15:12:35.402Z,95.00
2019-04-01T15:15:04.638Z,94.70
2019-04-01T15:17:36.835Z,95.30
2019-04-01T15:20:08.476Z,95.20
2019-04-01T15:22:36.983Z,95.60
2019-04-01T15:25:08.678Z,95.70
2019-04-01T15:27:37.147Z,95.40
2019-04-01T15:30:14.295Z,95.50
2019-04-01T15:32:42.706Z,94.80
2019-04-01T15:35:11.383Z,94.70
2019-04-01T15:37:39.798Z,94.40
2019-04-01T15:40:08.477Z,94.50
2019-04-01T15:42:36.908Z,94.70
2019-04-01T15:45:06.388Z,94.80
2019-04-01T15:47:35.600Z,95.00
2019-04-01T15:50:06.171Z,94.80
2019-04-01T15:52:34.689Z,94.60
2019-04-01T15:55:04.273Z,94.70
2019-04-01T15:57:32.699Z,95.00
2019-04-01T16:00:01.204Z,94.50
2019-04-01T16:02:29.647Z,94.70
2019-04-01T16:04:58.090Z,94.30
2019-04-01T16:07:26.526Z,95.00
2019-04-01T16:09:54.952Z,94.30
2019-04-01T16:12:23.367Z,94.70
2019-04-01T16:14:51.804Z,95.10
2019-04-01T16:17:20.228Z,95.50
2019-04-01T16:19:48.678Z,95.20
2019-04-01T16:22:17.102Z,95.20
2019-04-01T16:24:45.517Z,95.00
2019-04-01T16:27:13.959Z,95.50
2019-04-01T16:29:42.390Z,95.90
2019-04-01T16:32:10.819Z,95.70
2019-04-01T16:34:41.958Z,96.40
2019-04-01T16:37:09.402Z,96.50
2019-04-01T16:39:37.832Z,95.90
2019-04-01T16:42:06.275Z,95.90
2019-04-01T16:44:34.760Z,96.40
2019-04-01T16:47:03.225Z,96.20
2019-04-01T16:49:31.659Z,96.60
2019-04-01T16:52:00.359Z,96.80
2019-04-01T16:54:29.197Z,96.60
2019-04-01T16:56:57.645Z,96.30
2019-04-01T16:59:26.074Z,96.80
2019-04-01T17:01:57.625Z,97.20
2019-04-01T17:04:24.728Z,96.30
2019-04-01T17:06:53.167Z,96.30
2019-04-01T17:09:21.582Z,96.50
2019-04-01T17:11:50.157Z,96.30
2019-04-01T17:14:18.601Z,96.50
2019-04-01T17:16:47.047Z,96.70
2019-04-01T17:19:15.462Z,97.00
2019-04-01T17:21:43.921Z,97.40
2019-04-01T17:24:12.343Z,97.70
2019-04-01T17:26:49.117Z,98.50
2019-04-01T17:29:17.526Z,98.10
2019-04-01T17:31:45.978Z,98.10
2019-04-01T17:34:15.914Z,98.40
2019-04-01T17:36:46.732Z,98.40
2019-04-01T17:39:15.226Z,98.90
2019-04-01T17:41:46.309Z,99.00
2019-04-01T17:44:14.231Z,99.10
2019-04-01T17:46:43.085Z,99.10
2019-04-01T17:49:11.526Z,99.20
2019-04-01T17:51:39.975Z,99.60
2019-04-01T17:54:08.387Z,99.90
2019-04-01T17:56:36.816Z,99.90
2019-04-01T17:59:05.314Z,99.90
2019-04-01T18:01:33.760Z,99.90
2019-04-01T18:04:02.477Z,99.90
2019-04-01T18:06:31.398Z,99.90
2019-04-01T18:09:01.078Z,99.90
2019-04-01T18:11:29.524Z,99.90
2019-04-01T18:13:58.686Z,99.90
2019-04-01T18:16:27.126Z,99.90
2019-04-01T18:18:56.543Z,99.90
2019-04-01T18:21:24.974Z,99.90
2019-04-01T18:23:54.119Z,99.90
2019-04-01T18:26:23.417Z,99.90
2019-04-01T18:28:51.844Z,99.90
2019-04-01T18:31:20.262Z,99.90
2019-04-01T18:33:56.136Z,99.90
2019-04-01T18:36:18.847Z,99.90
2019-04-01T18:38:47.292Z,99.90
2019-04-01T18:41:15.730Z,99.90
2019-04-01T18:43:44.164Z,99.90
2019-04-01T18:46:12.615Z,99.90
2019-04-01T18:48:41.061Z,99.90
2019-04-01T18:51:09.480Z,99.90
2019-04-01T18:53:37.934Z,99.90
2019-04-01T18:56:09.826Z,99.90
2019-04-01T18:58:38.296Z,99.90
2019-04-01T19:01:06.709Z,99.90
2019-04-01T19:03:35.174Z,99.90
2019-04-01T19:06:03.586Z,99.90
2019-04-01T19:08:33.068Z,99.90
2019-04-01T19:11:02.750Z,99.90
2019-04-01T19:13:31.342Z,99.90
2019-04-01T19:16:01.019Z,99.90
2019-04-01T19:18:30.587Z,99.90
2019-04-01T19:21:04.407Z,99.90
2019-04-01T19:23:30.922Z,99.90
2019-04-01T19:25:59.517Z,99.90
2019-04-01T19:28:27.959Z,99.90
2019-04-01T19:30:56.378Z,99.90
2019-04-01T19:33:24.818Z,99.90
2019-04-01T19:35:53.258Z,99.90
2019-04-01T19:38:21.713Z,99.90
2019-04-01T19:40:50.139Z,99.90
2019-04-01T19:43:18.596Z,99.90
2019-04-01T19:45:47.009Z,99.90
2019-04-01T19:48:15.456Z,99.90
2019-04-01T19:50:43.906Z,99.90
2019-04-01T19:53:12.358Z,99.90
2019-04-01T19:55:43.686Z,99.90
2019-04-01T19:58:10.949Z,99.90
2019-04-01T20:00:39.387Z,99.90
2019-04-01T20:03:07.819Z,99.90
2019-04-01T20:05:36.249Z,99.90
2019-04-01T20:08:04.716Z,99.90
2019-04-01T20:10:33.195Z,99.90
2019-04-01T20:13:01.646Z,99.90
2019-04-01T20:15:30.095Z,99.90
2019-04-01T20:17:58.540Z,99.90
2019-04-01T20:20:26.983Z,99.90
2019-04-01T20:22:55.453Z,99.90
2019-04-01T20:25:23.882Z,99.90
2019-04-01T20:27:52.573Z,99.90
2019-04-01T20:30:21.735Z,99.90
2019-04-01T20:32:50.188Z,99.90
2019-04-01T20:35:23.670Z,99.90
2019-04-01T20:37:48.878Z,99.90
2019-04-01T20:40:17.588Z,99.90
2019-04-01T20:42:46.610Z,99.90
2019-04-01T20:45:17.282Z,99.90
2019-04-01T20:47:45.742Z,99.90
2019-04-01T20:50:16.105Z,99.90
2019-04-01T20:52:44.532Z,99.90
2019-04-01T20:55:13.948Z,99.90
2019-04-01T20:57:42.395Z,99.90
2019-04-01T21:00:11.053Z,99.90
2019-04-01T21:02:39.508Z,99.90
2019-04-01T21:05:08.572Z,99.90
2019-04-01T21:07:36.994Z,99.90
2019-04-01T21:10:08.988Z,99.90
2019-04-01T21:12:37.813Z,99.90
2019-04-01T21:15:07.160Z,99.90
2019-04-01T21:17:35.585Z,99.90
2019-04-01T21:20:07.338Z,99.90
2019-04-01T21:22:36.632Z,99.90
2019-04-01T21:25:07.139Z,99.90
2019-04-01T21:27:35.566Z,99.90
2019-04-01T21:30:07.108Z,99.90
2019-04-01T21:32:35.535Z,99.90
2019-04-01T21:35:04.715Z,99.90
2019-04-01T21:37:34.206Z,99.90
2019-04-01T21:40:04.502Z,99.90
2019-04-01T21:42:32.941Z,99.90
2019-04-01T21:45:01.381Z,99.90
2019-04-01T21:47:29.804Z,99.90
2019-04-01T21:49:58.263Z,99.90
2019-04-01T21:52:26.686Z,99.90
2019-04-01T21:54:56.887Z,99.90
2019-04-01T21:57:25.433Z,99.90
2019-04-01T21:59:53.887Z,99.90
2019-04-01T22:02:22.305Z,99.90
2019-04-01T22:04:50.742Z,99.90
2019-04-01T22:07:19.165Z,99.90
2019-04-01T22:09:47.676Z,99.90
2019-04-01T22:12:16.093Z,99.90
2019-04-01T22:14:44.529Z,99.90
2019-04-01T22:17:12.948Z,99.90
2019-04-01T22:19:41.548Z,99.90
2019-04-01T22:22:10.004Z,99.90
2019-04-01T22:24:38.445Z,99.90
2019-04-01T22:27:06.865Z,99.90
2019-04-01T22:29:35.295Z,99.90
2019-04-01T22:32:03.731Z,99.90
2019-04-01T22:34:32.166Z,99.90
2019-04-01T22:37:00.654Z,99.90
2019-04-01T22:39:29.085Z,99.90
2019-04-01T22:41:58.464Z,99.90
2019-04-01T22:44:27.255Z,99.90
2019-04-01T22:46:56.393Z,99.90
2019-04-01T22:49:24.828Z,99.90
2019-04-01T22:51:53.276Z,99.90
2019-04-01T22:54:21.703Z,99.90
2019-04-01T22:56:50.116Z,99.90
2019-04-01T22:59:19.282Z,99.90
2019-04-01T23:01:48.755Z,99.90
2019-04-01T23:04:17.200Z,99.90
2019-04-01T23:06:45.622Z,99.90
2019-04-01T23:09:14.055Z,99.90
2019-04-01T23:11:42.488Z,99.90
2019-04-01T23:14:10.906Z,99.90
2019-04-01T23:16:39.339Z,99.90
2019-04-01T23:19:07.758Z,99.90
2019-04-01T23:21:36.218Z,99.90
2019-04-01T23:24:07.069Z,99.90
2019-04-01T23:26:34.972Z,99.90
2019-04-01T23:29:03.407Z,99.90
2019-04-01T23:31:31.830Z,99.90
2019-04-01T23:34:00.250Z,99.90
2019-04-01T23:36:28.686Z,99.90
2019-04-01T23:38:57.154Z,99.90
2019-04-01T23:41:27.231Z,99.90
2019-04-01T23:43:57.608Z,99.90
2019-04-01T23:46:25.830Z,99.90
2019-04-01T23:48:55.941Z,99.90
2019-04-01T23:51:26.029Z,99.90
2019-04-01T23:53:54.458Z,99.90
2019-04-01T23:56:22.879Z,99.90
2019-04-01T23:58:51.616Z,99.90
